sensor_id;sensor_type;location;lat;lon;timestamp;P1;durP1;ratioP1;P2;durP2;ratioP2
67889;SDS011;54685;52.082;5.426;2023-02-15T00:01:45;30.73;;;19.02;;
67889;SDS011;54685;52.082;5.426;2023-02-15T00:04:13;30.30;;;18.02;;
67889;SDS011;54685;52.082;5.426;2023-02-15T00:06:42;33.75;;;18.88;;
67889;SDS011;54685;52.082;5.426;2023-02-15T00:09:10;27.63;;;18.38;;
67889;SDS011;54685;52.082;5.426;2023-02-15T00:11:37;39.20;;;20.00;;
67889;SDS011;54685;52.082;5.426;2023-02-15T00:14:18;31.35;;;18.77;;
67889;SDS011;54685;52.082;5.426;2023-02-15T00:16:47;33.08;;;18.88;;
67889;SDS011;54685;52.082;5.426;2023-02-15T00:19:23;29.80;;;18.08;;
67889;SDS011;54685;52.082;5.426;2023-02-15T00:21:50;29.98;;;19.58;;
67889;SDS011;54685;52.082;5.426;2023-02-15T00:24:17;31.92;;;19.73;;
67889;SDS011;54685;52.082;5.426;2023-02-15T00:26:45;27.92;;;18.65;;
67889;SDS011;54685;52.082;5.426;2023-02-15T00:29:16;35.55;;;20.25;;
67889;SDS011;54685;52.082;5.426;2023-02-15T00:31:44;29.88;;;19.45;;
67889;SDS011;54685;52.082;5.426;2023-02-15T00:34:13;32.92;;;20.05;;
67889;SDS011;54685;52.082;5.426;2023-02-15T00:36:40;34.28;;;19.20;;
67889;SDS011;54685;52.082;5.426;2023-02-15T00:39:06;30.95;;;19.40;;
67889;SDS011;54685;52.082;5.426;2023-02-15T00:41:34;31.13;;;20.02;;
67889;SDS011;54685;52.082;5.426;2023-02-15T00:44:02;29.92;;;18.63;;
67889;SDS011;54685;52.082;5.426;2023-02-15T00:46:29;32.45;;;19.42;;
67889;SDS011;54685;52.082;5.426;2023-02-15T00:48:56;28.83;;;18.88;;
67889;SDS011;54685;52.082;5.426;2023-02-15T00:51:23;30.42;;;18.77;;
67889;SDS011;54685;52.082;5.426;2023-02-15T00:53:51;30.25;;;19.75;;
67889;SDS011;54685;52.082;5.426;2023-02-15T00:56:20;31.77;;;19.25;;
67889;SDS011;54685;52.082;5.426;2023-02-15T00:58:47;34.03;;;18.38;;
67889;SDS011;54685;52.082;5.426;2023-02-15T01:01:15;32.28;;;19.40;;
67889;SDS011;54685;52.082;5.426;2023-02-15T01:03:46;29.60;;;19.33;;
67889;SDS011;54685;52.082;5.426;2023-02-15T01:06:14;30.55;;;19.05;;
67889;SDS011;54685;52.082;5.426;2023-02-15T01:08:42;33.85;;;19.85;;
67889;SDS011;54685;52.082;5.426;2023-02-15T01:11:14;32.53;;;19.35;;
67889;SDS011;54685;52.082;5.426;2023-02-15T01:13:54;30.85;;;19.83;;
67889;SDS011;54685;52.082;5.426;2023-02-15T01:16:22;30.20;;;19.17;;
67889;SDS011;54685;52.082;5.426;2023-02-15T01:18:51;32.10;;;19.17;;
67889;SDS011;54685;52.082;5.426;2023-02-15T01:21:19;31.40;;;19.85;;
67889;SDS011;54685;52.082;5.426;2023-02-15T01:23:47;34.90;;;19.98;;
67889;SDS011;54685;52.082;5.426;2023-02-15T01:26:14;30.80;;;19.30;;
67889;SDS011;54685;52.082;5.426;2023-02-15T01:28:43;32.30;;;18.80;;
67889;SDS011;54685;52.082;5.426;2023-02-15T01:31:11;32.35;;;19.17;;
67889;SDS011;54685;52.082;5.426;2023-02-15T01:33:39;31.88;;;19.42;;
67889;SDS011;54685;52.082;5.426;2023-02-15T01:36:09;28.85;;;19.40;;
67889;SDS011;54685;52.082;5.426;2023-02-15T01:38:38;36.72;;;19.23;;
67889;SDS011;54685;52.082;5.426;2023-02-15T01:41:08;29.10;;;19.17;;
67889;SDS011;54685;52.082;5.426;2023-02-15T01:43:59;33.80;;;18.65;;
67889;SDS011;54685;52.082;5.426;2023-02-15T01:46:30;27.38;;;18.58;;
67889;SDS011;54685;52.082;5.426;2023-02-15T01:49:09;32.67;;;17.95;;
67889;SDS011;54685;52.082;5.426;2023-02-15T01:51:41;30.52;;;18.13;;
67889;SDS011;54685;52.082;5.426;2023-02-15T01:56:46;25.95;;;16.92;;
67889;SDS011;54685;52.082;5.426;2023-02-15T01:59:15;35.20;;;18.58;;
67889;SDS011;54685;52.082;5.426;2023-02-15T02:01:47;29.33;;;18.58;;
67889;SDS011;54685;52.082;5.426;2023-02-15T02:04:17;39.03;;;19.45;;
67889;SDS011;54685;52.082;5.426;2023-02-15T02:07:06;28.45;;;17.88;;
67889;SDS011;54685;52.082;5.426;2023-02-15T02:09:34;27.48;;;17.67;;
67889;SDS011;54685;52.082;5.426;2023-02-15T02:12:02;31.15;;;17.95;;
67889;SDS011;54685;52.082;5.426;2023-02-15T02:14:30;29.02;;;18.02;;
67889;SDS011;54685;52.082;5.426;2023-02-15T02:16:58;31.63;;;18.40;;
67889;SDS011;54685;52.082;5.426;2023-02-15T02:27:47;31.05;;;16.23;;
67889;SDS011;54685;52.082;5.426;2023-02-15T02:30:37;27.77;;;15.93;;
67889;SDS011;54685;52.082;5.426;2023-02-15T02:44:35;30.30;;;17.00;;
67889;SDS011;54685;52.082;5.426;2023-02-15T02:47:12;24.40;;;15.35;;
67889;SDS011;54685;52.082;5.426;2023-02-15T02:49:45;26.63;;;15.82;;
67889;SDS011;54685;52.082;5.426;2023-02-15T02:55:07;27.25;;;16.42;;
67889;SDS011;54685;52.082;5.426;2023-02-15T02:58:09;26.80;;;16.90;;
67889;SDS011;54685;52.082;5.426;2023-02-15T03:00:56;25.65;;;16.02;;
67889;SDS011;54685;52.082;5.426;2023-02-15T03:03:38;27.05;;;16.02;;
67889;SDS011;54685;52.082;5.426;2023-02-15T03:06:06;27.38;;;16.70;;
67889;SDS011;54685;52.082;5.426;2023-02-15T03:08:42;28.67;;;16.60;;
67889;SDS011;54685;52.082;5.426;2023-02-15T03:11:13;25.08;;;16.17;;
67889;SDS011;54685;52.082;5.426;2023-02-15T03:13:41;27.15;;;16.67;;
67889;SDS011;54685;52.082;5.426;2023-02-15T03:16:10;26.85;;;16.48;;
67889;SDS011;54685;52.082;5.426;2023-02-15T03:19:01;29.17;;;16.90;;
67889;SDS011;54685;52.082;5.426;2023-02-15T03:24:25;23.67;;;15.95;;
67889;SDS011;54685;52.082;5.426;2023-02-15T03:26:56;29.83;;;16.42;;
67889;SDS011;54685;52.082;5.426;2023-02-15T03:29:24;29.55;;;17.15;;
67889;SDS011;54685;52.082;5.426;2023-02-15T03:31:58;26.50;;;17.52;;
67889;SDS011;54685;52.082;5.426;2023-02-15T03:34:27;29.65;;;17.00;;
67889;SDS011;54685;52.082;5.426;2023-02-15T03:36:56;25.13;;;17.05;;
67889;SDS011;54685;52.082;5.426;2023-02-15T03:42:03;26.63;;;16.33;;
67889;SDS011;54685;52.082;5.426;2023-02-15T03:47:36;27.83;;;17.33;;
67889;SDS011;54685;52.082;5.426;2023-02-15T03:50:09;31.88;;;17.48;;
67889;SDS011;54685;52.082;5.426;2023-02-15T03:52:59;27.55;;;15.60;;
67889;SDS011;54685;52.082;5.426;2023-02-15T03:55:28;31.55;;;16.52;;
67889;SDS011;54685;52.082;5.426;2023-02-15T03:57:57;26.83;;;17.17;;
67889;SDS011;54685;52.082;5.426;2023-02-15T04:00:44;31.48;;;17.83;;
67889;SDS011;54685;52.082;5.426;2023-02-15T04:03:45;28.23;;;16.48;;
67889;SDS011;54685;52.082;5.426;2023-02-15T04:06:26;25.70;;;16.35;;
67889;SDS011;54685;52.082;5.426;2023-02-15T04:08:52;24.45;;;15.60;;
67889;SDS011;54685;52.082;5.426;2023-02-15T04:11:37;31.58;;;16.70;;
67889;SDS011;54685;52.082;5.426;2023-02-15T04:14:04;32.22;;;19.10;;
67889;SDS011;54685;52.082;5.426;2023-02-15T04:16:50;28.65;;;17.40;;
67889;SDS011;54685;52.082;5.426;2023-02-15T04:19:17;27.17;;;16.83;;
67889;SDS011;54685;52.082;5.426;2023-02-15T04:22:12;28.13;;;17.42;;
67889;SDS011;54685;52.082;5.426;2023-02-15T04:24:58;25.75;;;16.92;;
67889;SDS011;54685;52.082;5.426;2023-02-15T04:27:47;34.72;;;17.27;;
67889;SDS011;54685;52.082;5.426;2023-02-15T04:30:19;33.28;;;19.23;;
67889;SDS011;54685;52.082;5.426;2023-02-15T04:32:49;28.65;;;18.42;;
67889;SDS011;54685;52.082;5.426;2023-02-15T04:35:16;30.10;;;18.65;;
67889;SDS011;54685;52.082;5.426;2023-02-15T04:37:42;27.15;;;17.88;;
67889;SDS011;54685;52.082;5.426;2023-02-15T04:40:10;27.75;;;17.45;;
67889;SDS011;54685;52.082;5.426;2023-02-15T04:42:42;29.17;;;17.67;;
67889;SDS011;54685;52.082;5.426;2023-02-15T04:45:08;28.20;;;18.20;;
67889;SDS011;54685;52.082;5.426;2023-02-15T04:47:35;29.58;;;17.58;;
67889;SDS011;54685;52.082;5.426;2023-02-15T04:50:03;30.55;;;18.55;;
67889;SDS011;54685;52.082;5.426;2023-02-15T04:52:31;33.38;;;19.63;;
67889;SDS011;54685;52.082;5.426;2023-02-15T04:54:57;31.35;;;19.00;;
67889;SDS011;54685;52.082;5.426;2023-02-15T04:57:24;31.77;;;18.17;;
67889;SDS011;54685;52.082;5.426;2023-02-15T04:59:51;31.63;;;18.65;;
67889;SDS011;54685;52.082;5.426;2023-02-15T05:02:17;32.00;;;18.00;;
67889;SDS011;54685;52.082;5.426;2023-02-15T05:04:46;34.47;;;18.35;;
67889;SDS011;54685;52.082;5.426;2023-02-15T05:07:12;33.17;;;19.10;;
67889;SDS011;54685;52.082;5.426;2023-02-15T05:09:40;33.53;;;19.70;;
67889;SDS011;54685;52.082;5.426;2023-02-15T05:12:07;34.05;;;19.77;;
67889;SDS011;54685;52.082;5.426;2023-02-15T05:14:34;32.88;;;20.33;;
67889;SDS011;54685;52.082;5.426;2023-02-15T05:17:05;34.17;;;18.88;;
67889;SDS011;54685;52.082;5.426;2023-02-15T05:19:31;32.08;;;19.58;;
67889;SDS011;54685;52.082;5.426;2023-02-15T05:21:58;36.92;;;20.65;;
67889;SDS011;54685;52.082;5.426;2023-02-15T05:24:25;32.40;;;18.75;;
67889;SDS011;54685;52.082;5.426;2023-02-15T05:27:11;35.45;;;20.42;;
67889;SDS011;54685;52.082;5.426;2023-02-15T05:29:57;34.17;;;19.77;;
67889;SDS011;54685;52.082;5.426;2023-02-15T05:32:26;28.60;;;18.42;;
67889;SDS011;54685;52.082;5.426;2023-02-15T05:34:53;32.53;;;19.75;;
67889;SDS011;54685;52.082;5.426;2023-02-15T05:37:20;31.48;;;18.63;;
67889;SDS011;54685;52.082;5.426;2023-02-15T05:39:47;33.53;;;18.52;;
67889;SDS011;54685;52.082;5.426;2023-02-15T05:42:13;33.35;;;18.63;;
67889;SDS011;54685;52.082;5.426;2023-02-15T05:44:40;30.17;;;19.15;;
67889;SDS011;54685;52.082;5.426;2023-02-15T05:47:07;27.55;;;17.60;;
67889;SDS011;54685;52.082;5.426;2023-02-15T05:49:34;32.33;;;19.42;;
67889;SDS011;54685;52.082;5.426;2023-02-15T05:52:01;33.90;;;18.95;;
67889;SDS011;54685;52.082;5.426;2023-02-15T05:54:29;33.83;;;19.20;;
67889;SDS011;54685;52.082;5.426;2023-02-15T05:56:55;36.15;;;20.00;;
67889;SDS011;54685;52.082;5.426;2023-02-15T05:59:22;30.67;;;18.60;;
67889;SDS011;54685;52.082;5.426;2023-02-15T06:01:54;33.93;;;19.53;;
67889;SDS011;54685;52.082;5.426;2023-02-15T06:04:21;30.23;;;19.52;;
67889;SDS011;54685;52.082;5.426;2023-02-15T06:06:48;37.38;;;19.40;;
67889;SDS011;54685;52.082;5.426;2023-02-15T06:09:14;36.17;;;20.65;;
67889;SDS011;54685;52.082;5.426;2023-02-15T06:11:44;37.28;;;20.20;;
67889;SDS011;54685;52.082;5.426;2023-02-15T06:14:11;38.45;;;21.00;;
67889;SDS011;54685;52.082;5.426;2023-02-15T06:16:38;40.08;;;19.70;;
67889;SDS011;54685;52.082;5.426;2023-02-15T06:19:05;32.58;;;20.17;;
67889;SDS011;54685;52.082;5.426;2023-02-15T06:21:31;34.97;;;20.50;;
67889;SDS011;54685;52.082;5.426;2023-02-15T06:23:58;34.17;;;19.63;;
67889;SDS011;54685;52.082;5.426;2023-02-15T06:26:25;33.60;;;20.52;;
67889;SDS011;54685;52.082;5.426;2023-02-15T06:28:52;43.30;;;20.85;;
67889;SDS011;54685;52.082;5.426;2023-02-15T06:31:18;32.95;;;19.73;;
67889;SDS011;54685;52.082;5.426;2023-02-15T06:33:45;43.10;;;20.55;;
67889;SDS011;54685;52.082;5.426;2023-02-15T06:36:12;35.80;;;19.27;;
67889;SDS011;54685;52.082;5.426;2023-02-15T06:38:39;32.15;;;19.48;;
67889;SDS011;54685;52.082;5.426;2023-02-15T06:41:06;33.30;;;19.33;;
67889;SDS011;54685;52.082;5.426;2023-02-15T06:43:32;31.40;;;19.42;;
67889;SDS011;54685;52.082;5.426;2023-02-15T06:46:00;32.20;;;19.70;;
67889;SDS011;54685;52.082;5.426;2023-02-15T06:48:27;35.13;;;20.75;;
67889;SDS011;54685;52.082;5.426;2023-02-15T06:50:54;35.00;;;19.17;;
67889;SDS011;54685;52.082;5.426;2023-02-15T06:53:23;34.38;;;19.30;;
67889;SDS011;54685;52.082;5.426;2023-02-15T06:55:50;31.10;;;19.10;;
67889;SDS011;54685;52.082;5.426;2023-02-15T06:58:17;35.25;;;19.80;;
67889;SDS011;54685;52.082;5.426;2023-02-15T07:00:45;31.27;;;19.23;;
67889;SDS011;54685;52.082;5.426;2023-02-15T07:03:13;34.53;;;19.48;;
67889;SDS011;54685;52.082;5.426;2023-02-15T07:05:41;33.05;;;19.48;;
67889;SDS011;54685;52.082;5.426;2023-02-15T07:08:07;36.95;;;19.88;;
67889;SDS011;54685;52.082;5.426;2023-02-15T07:10:34;33.13;;;20.35;;
67889;SDS011;54685;52.082;5.426;2023-02-15T07:13:01;38.08;;;20.15;;
67889;SDS011;54685;52.082;5.426;2023-02-15T07:15:31;41.00;;;19.55;;
67889;SDS011;54685;52.082;5.426;2023-02-15T07:17:57;36.75;;;21.02;;
67889;SDS011;54685;52.082;5.426;2023-02-15T07:20:25;33.65;;;20.42;;
67889;SDS011;54685;52.082;5.426;2023-02-15T07:22:52;44.55;;;20.20;;
67889;SDS011;54685;52.082;5.426;2023-02-15T07:25:19;40.83;;;20.52;;
67889;SDS011;54685;52.082;5.426;2023-02-15T07:27:45;35.45;;;20.27;;
67889;SDS011;54685;52.082;5.426;2023-02-15T07:30:13;39.47;;;21.75;;
67889;SDS011;54685;52.082;5.426;2023-02-15T07:32:42;33.45;;;19.25;;
67889;SDS011;54685;52.082;5.426;2023-02-15T07:35:31;39.83;;;21.90;;
67889;SDS011;54685;52.082;5.426;2023-02-15T07:37:58;45.30;;;22.58;;
67889;SDS011;54685;52.082;5.426;2023-02-15T07:40:25;38.17;;;21.33;;
67889;SDS011;54685;52.082;5.426;2023-02-15T07:42:52;38.28;;;21.35;;
67889;SDS011;54685;52.082;5.426;2023-02-15T07:45:20;42.00;;;22.55;;
67889;SDS011;54685;52.082;5.426;2023-02-15T07:47:47;38.53;;;22.60;;
67889;SDS011;54685;52.082;5.426;2023-02-15T07:50:14;42.35;;;23.42;;
67889;SDS011;54685;52.082;5.426;2023-02-15T07:52:41;42.65;;;23.00;;
67889;SDS011;54685;52.082;5.426;2023-02-15T07:55:08;46.50;;;25.15;;
67889;SDS011;54685;52.082;5.426;2023-02-15T07:57:35;36.45;;;22.65;;
67889;SDS011;54685;52.082;5.426;2023-02-15T08:00:02;37.63;;;22.50;;
67889;SDS011;54685;52.082;5.426;2023-02-15T08:02:37;42.15;;;23.48;;
67889;SDS011;54685;52.082;5.426;2023-02-15T08:05:04;48.75;;;24.52;;
67889;SDS011;54685;52.082;5.426;2023-02-15T08:07:32;42.17;;;23.88;;
67889;SDS011;54685;52.082;5.426;2023-02-15T08:09:59;35.90;;;23.00;;
67889;SDS011;54685;52.082;5.426;2023-02-15T08:12:26;40.72;;;23.55;;
67889;SDS011;54685;52.082;5.426;2023-02-15T08:14:53;45.13;;;23.73;;
67889;SDS011;54685;52.082;5.426;2023-02-15T08:17:20;42.80;;;23.45;;
67889;SDS011;54685;52.082;5.426;2023-02-15T08:19:46;49.65;;;24.23;;
67889;SDS011;54685;52.082;5.426;2023-02-15T08:22:14;44.13;;;24.25;;
67889;SDS011;54685;52.082;5.426;2023-02-15T08:24:40;41.42;;;23.92;;
67889;SDS011;54685;52.082;5.426;2023-02-15T08:27:08;43.05;;;23.48;;
67889;SDS011;54685;52.082;5.426;2023-02-15T08:29:36;42.58;;;24.60;;
67889;SDS011;54685;52.082;5.426;2023-02-15T08:32:05;45.40;;;23.98;;
67889;SDS011;54685;52.082;5.426;2023-02-15T08:34:35;44.50;;;24.92;;
67889;SDS011;54685;52.082;5.426;2023-02-15T08:37:04;46.53;;;25.38;;
67889;SDS011;54685;52.082;5.426;2023-02-15T08:39:32;42.55;;;24.83;;
67889;SDS011;54685;52.082;5.426;2023-02-15T08:41:59;49.22;;;25.90;;
67889;SDS011;54685;52.082;5.426;2023-02-15T08:44:25;42.78;;;25.13;;
67889;SDS011;54685;52.082;5.426;2023-02-15T08:46:52;48.72;;;26.35;;
67889;SDS011;54685;52.082;5.426;2023-02-15T08:49:20;45.38;;;25.77;;
67889;SDS011;54685;52.082;5.426;2023-02-15T08:51:48;43.60;;;25.25;;
67889;SDS011;54685;52.082;5.426;2023-02-15T08:54:17;41.42;;;24.63;;
67889;SDS011;54685;52.082;5.426;2023-02-15T08:56:45;47.55;;;26.88;;
67889;SDS011;54685;52.082;5.426;2023-02-15T08:59:16;47.45;;;25.45;;
67889;SDS011;54685;52.082;5.426;2023-02-15T09:01:44;41.17;;;25.53;;
67889;SDS011;54685;52.082;5.426;2023-02-15T09:04:12;47.45;;;26.45;;
67889;SDS011;54685;52.082;5.426;2023-02-15T09:06:40;45.00;;;25.95;;
67889;SDS011;54685;52.082;5.426;2023-02-15T09:09:09;46.70;;;27.52;;
67889;SDS011;54685;52.082;5.426;2023-02-15T09:11:37;44.13;;;25.13;;
67889;SDS011;54685;52.082;5.426;2023-02-15T09:14:10;49.53;;;27.13;;
67889;SDS011;54685;52.082;5.426;2023-02-15T09:16:42;46.50;;;26.95;;
67889;SDS011;54685;52.082;5.426;2023-02-15T09:19:15;50.97;;;28.13;;
67889;SDS011;54685;52.082;5.426;2023-02-15T09:21:44;45.75;;;25.92;;
67889;SDS011;54685;52.082;5.426;2023-02-15T09:24:12;42.85;;;23.95;;
67889;SDS011;54685;52.082;5.426;2023-02-15T09:26:41;48.45;;;27.92;;
67889;SDS011;54685;52.082;5.426;2023-02-15T09:29:12;48.85;;;28.27;;
67889;SDS011;54685;52.082;5.426;2023-02-15T09:31:40;46.15;;;28.50;;
67889;SDS011;54685;52.082;5.426;2023-02-15T09:34:11;46.35;;;26.83;;
67889;SDS011;54685;52.082;5.426;2023-02-15T09:36:39;46.20;;;26.55;;
67889;SDS011;54685;52.082;5.426;2023-02-15T09:39:10;52.03;;;26.98;;
67889;SDS011;54685;52.082;5.426;2023-02-15T09:47:47;41.33;;;25.95;;
67889;SDS011;54685;52.082;5.426;2023-02-15T09:50:42;47.15;;;27.95;;
67889;SDS011;54685;52.082;5.426;2023-02-15T09:59:26;48.60;;;27.20;;
67889;SDS011;54685;52.082;5.426;2023-02-15T10:10:46;44.83;;;26.70;;
67889;SDS011;54685;52.082;5.426;2023-02-15T10:14:03;44.47;;;26.88;;
67889;SDS011;54685;52.082;5.426;2023-02-15T10:20:08;45.63;;;27.33;;
67889;SDS011;54685;52.082;5.426;2023-02-15T10:23:07;43.95;;;24.98;;
67889;SDS011;54685;52.082;5.426;2023-02-15T10:32:00;44.70;;;26.95;;
67889;SDS011;54685;52.082;5.426;2023-02-15T10:34:12;42.72;;;26.27;;
67889;SDS011;54685;52.082;5.426;2023-02-15T10:42:28;42.28;;;26.20;;
67889;SDS011;54685;52.082;5.426;2023-02-15T10:45:12;35.45;;;24.20;;
67889;SDS011;54685;52.082;5.426;2023-02-15T10:48:03;39.08;;;24.05;;
67889;SDS011;54685;52.082;5.426;2023-02-15T10:56:46;42.20;;;26.27;;
67889;SDS011;54685;52.082;5.426;2023-02-15T11:02:25;38.58;;;25.27;;
67889;SDS011;54685;52.082;5.426;2023-02-15T11:08:10;37.55;;;24.33;;
67889;SDS011;54685;52.082;5.426;2023-02-15T11:10:39;42.22;;;26.15;;
67889;SDS011;54685;52.082;5.426;2023-02-15T11:13:22;39.65;;;25.23;;
67889;SDS011;54685;52.082;5.426;2023-02-15T11:15:57;42.08;;;25.38;;
67889;SDS011;54685;52.082;5.426;2023-02-15T11:18:48;38.78;;;25.77;;
67889;SDS011;54685;52.082;5.426;2023-02-15T11:21:21;50.97;;;30.48;;
67889;SDS011;54685;52.082;5.426;2023-02-15T11:23:54;42.42;;;26.30;;
67889;SDS011;54685;52.082;5.426;2023-02-15T11:26:26;39.30;;;26.67;;
67889;SDS011;54685;52.082;5.426;2023-02-15T11:37:21;41.35;;;26.20;;
67889;SDS011;54685;52.082;5.426;2023-02-15T11:39:55;41.47;;;26.08;;
67889;SDS011;54685;52.082;5.426;2023-02-15T11:42:23;40.88;;;25.85;;
67889;SDS011;54685;52.082;5.426;2023-02-15T11:47:28;38.55;;;26.40;;
67889;SDS011;54685;52.082;5.426;2023-02-15T11:49:54;40.45;;;25.90;;
67889;SDS011;54685;52.082;5.426;2023-02-15T11:52:22;38.15;;;25.27;;
67889;SDS011;54685;52.082;5.426;2023-02-15T11:54:49;40.20;;;25.85;;
67889;SDS011;54685;52.082;5.426;2023-02-15T11:57:19;41.28;;;27.13;;
67889;SDS011;54685;52.082;5.426;2023-02-15T11:59:50;38.38;;;26.05;;
67889;SDS011;54685;52.082;5.426;2023-02-15T12:02:24;40.47;;;26.92;;
67889;SDS011;54685;52.082;5.426;2023-02-15T12:04:58;39.65;;;25.20;;
67889;SDS011;54685;52.082;5.426;2023-02-15T12:07:28;37.83;;;25.27;;
67889;SDS011;54685;52.082;5.426;2023-02-15T12:10:23;44.08;;;26.17;;
67889;SDS011;54685;52.082;5.426;2023-02-15T12:13:13;42.55;;;27.70;;
67889;SDS011;54685;52.082;5.426;2023-02-15T12:15:42;41.67;;;26.25;;
67889;SDS011;54685;52.082;5.426;2023-02-15T12:21:26;43.70;;;25.77;;
67889;SDS011;54685;52.082;5.426;2023-02-15T12:24:16;40.92;;;26.58;;
67889;SDS011;54685;52.082;5.426;2023-02-15T12:26:45;40.25;;;26.63;;
67889;SDS011;54685;52.082;5.426;2023-02-15T12:29:24;34.65;;;24.45;;
67889;SDS011;54685;52.082;5.426;2023-02-15T12:31:55;36.53;;;25.48;;
67889;SDS011;54685;52.082;5.426;2023-02-15T12:34:35;39.05;;;26.70;;
67889;SDS011;54685;52.082;5.426;2023-02-15T12:37:19;38.25;;;26.35;;
67889;SDS011;54685;52.082;5.426;2023-02-15T12:39:54;37.42;;;25.63;;
67889;SDS011;54685;52.082;5.426;2023-02-15T12:42:23;36.90;;;25.98;;
67889;SDS011;54685;52.082;5.426;2023-02-15T12:47:22;34.78;;;26.63;;
67889;SDS011;54685;52.082;5.426;2023-02-15T12:56:05;37.10;;;27.58;;
67889;SDS011;54685;52.082;5.426;2023-02-15T12:58:35;39.72;;;25.85;;
67889;SDS011;54685;52.082;5.426;2023-02-15T13:01:10;39.35;;;26.50;;
67889;SDS011;54685;52.082;5.426;2023-02-15T13:06:21;37.63;;;26.55;;
67889;SDS011;54685;52.082;5.426;2023-02-15T13:08:50;37.97;;;26.60;;
67889;SDS011;54685;52.082;5.426;2023-02-15T13:11:29;38.90;;;26.23;;
67889;SDS011;54685;52.082;5.426;2023-02-15T13:14:01;37.33;;;25.17;;
67889;SDS011;54685;52.082;5.426;2023-02-15T13:16:38;40.17;;;25.70;;
67889;SDS011;54685;52.082;5.426;2023-02-15T13:19:10;44.08;;;25.67;;
67889;SDS011;54685;52.082;5.426;2023-02-15T13:26:42;37.97;;;25.67;;
67889;SDS011;54685;52.082;5.426;2023-02-15T13:29:18;35.60;;;25.63;;
67889;SDS011;54685;52.082;5.426;2023-02-15T13:31:52;37.70;;;26.75;;
67889;SDS011;54685;52.082;5.426;2023-02-15T13:34:22;44.88;;;27.75;;
67889;SDS011;54685;52.082;5.426;2023-02-15T13:39:44;42.38;;;26.95;;
67889;SDS011;54685;52.082;5.426;2023-02-15T13:42:20;40.42;;;25.50;;
67889;SDS011;54685;52.082;5.426;2023-02-15T13:44:56;45.67;;;26.63;;
67889;SDS011;54685;52.082;5.426;2023-02-15T13:48:12;44.13;;;27.05;;
67889;SDS011;54685;52.082;5.426;2023-02-15T13:51:14;40.97;;;27.13;;
67889;SDS011;54685;52.082;5.426;2023-02-15T14:11:01;45.33;;;27.35;;
67889;SDS011;54685;52.082;5.426;2023-02-15T14:22:07;44.00;;;28.05;;
67889;SDS011;54685;52.082;5.426;2023-02-15T14:24:48;44.70;;;27.33;;
67889;SDS011;54685;52.082;5.426;2023-02-15T14:27:48;41.83;;;26.80;;
67889;SDS011;54685;52.082;5.426;2023-02-15T14:30:22;46.08;;;27.45;;
67889;SDS011;54685;52.082;5.426;2023-02-15T14:33:05;45.83;;;28.55;;
67889;SDS011;54685;52.082;5.426;2023-02-15T14:35:51;48.42;;;29.13;;
67889;SDS011;54685;52.082;5.426;2023-02-15T14:38:21;41.58;;;28.20;;
67889;SDS011;54685;52.082;5.426;2023-02-15T14:41:07;42.28;;;27.35;;
67889;SDS011;54685;52.082;5.426;2023-02-15T14:46:56;42.67;;;27.92;;
67889;SDS011;54685;52.082;5.426;2023-02-15T14:49:31;43.28;;;28.35;;
67889;SDS011;54685;52.082;5.426;2023-02-15T14:52:04;46.67;;;28.23;;
67889;SDS011;54685;52.082;5.426;2023-02-15T15:07:53;45.53;;;29.23;;
67889;SDS011;54685;52.082;5.426;2023-02-15T15:12:52;40.17;;;27.50;;
67889;SDS011;54685;52.082;5.426;2023-02-15T15:17:57;49.72;;;30.40;;
67889;SDS011;54685;52.082;5.426;2023-02-15T15:20:47;52.00;;;29.88;;
67889;SDS011;54685;52.082;5.426;2023-02-15T15:25:48;48.80;;;30.23;;
67889;SDS011;54685;52.082;5.426;2023-02-15T15:28:52;49.72;;;30.50;;
67889;SDS011;54685;52.082;5.426;2023-02-15T15:42:50;47.67;;;28.60;;
67889;SDS011;54685;52.082;5.426;2023-02-15T15:51:14;45.65;;;28.33;;
67889;SDS011;54685;52.082;5.426;2023-02-15T15:53:46;45.05;;;27.50;;
67889;SDS011;54685;52.082;5.426;2023-02-15T15:56:18;50.67;;;28.50;;
67889;SDS011;54685;52.082;5.426;2023-02-15T15:58:54;44.88;;;28.70;;
67889;SDS011;54685;52.082;5.426;2023-02-15T16:01:28;45.95;;;30.38;;
67889;SDS011;54685;52.082;5.426;2023-02-15T16:06:28;47.45;;;28.15;;
67889;SDS011;54685;52.082;5.426;2023-02-15T16:12:02;45.25;;;28.17;;
67889;SDS011;54685;52.082;5.426;2023-02-15T16:14:38;47.85;;;28.98;;
67889;SDS011;54685;52.082;5.426;2023-02-15T16:17:07;46.92;;;29.13;;
67889;SDS011;54685;52.082;5.426;2023-02-15T16:19:42;42.63;;;27.83;;
67889;SDS011;54685;52.082;5.426;2023-02-15T16:22:10;45.80;;;28.50;;
67889;SDS011;54685;52.082;5.426;2023-02-15T16:25:04;47.45;;;27.50;;
67889;SDS011;54685;52.082;5.426;2023-02-15T16:27:38;47.97;;;28.10;;
67889;SDS011;54685;52.082;5.426;2023-02-15T16:32:53;46.42;;;29.63;;
67889;SDS011;54685;52.082;5.426;2023-02-15T16:35:22;45.28;;;27.25;;
67889;SDS011;54685;52.082;5.426;2023-02-15T16:37:49;43.78;;;28.92;;
67889;SDS011;54685;52.082;5.426;2023-02-15T16:40:25;46.95;;;28.42;;
67889;SDS011;54685;52.082;5.426;2023-02-15T16:42:53;48.50;;;26.92;;
67889;SDS011;54685;52.082;5.426;2023-02-15T16:45:24;45.47;;;28.08;;
67889;SDS011;54685;52.082;5.426;2023-02-15T16:47:53;47.97;;;28.23;;
67889;SDS011;54685;52.082;5.426;2023-02-15T16:50:24;44.33;;;27.65;;
67889;SDS011;54685;52.082;5.426;2023-02-15T16:52:56;45.88;;;28.52;;
67889;SDS011;54685;52.082;5.426;2023-02-15T16:55:24;46.25;;;28.10;;
67889;SDS011;54685;52.082;5.426;2023-02-15T16:58:05;45.45;;;26.60;;
67889;SDS011;54685;52.082;5.426;2023-02-15T17:00:34;47.50;;;27.15;;
67889;SDS011;54685;52.082;5.426;2023-02-15T17:03:05;51.25;;;28.77;;
67889;SDS011;54685;52.082;5.426;2023-02-15T17:05:42;46.63;;;28.90;;
67889;SDS011;54685;52.082;5.426;2023-02-15T17:08:17;50.78;;;28.75;;
67889;SDS011;54685;52.082;5.426;2023-02-15T17:13:26;45.30;;;28.13;;
67889;SDS011;54685;52.082;5.426;2023-02-15T17:20:59;47.22;;;28.65;;
67889;SDS011;54685;52.082;5.426;2023-02-15T17:23:29;50.50;;;30.38;;
67889;SDS011;54685;52.082;5.426;2023-02-15T17:26:01;52.80;;;30.98;;
67889;SDS011;54685;52.082;5.426;2023-02-15T17:29:22;53.40;;;31.20;;
67889;SDS011;54685;52.082;5.426;2023-02-15T17:31:57;51.10;;;30.85;;
67889;SDS011;54685;52.082;5.426;2023-02-15T17:37:24;51.45;;;31.95;;
67889;SDS011;54685;52.082;5.426;2023-02-15T17:39:57;55.33;;;32.50;;
67889;SDS011;54685;52.082;5.426;2023-02-15T17:42:26;53.80;;;33.90;;
67889;SDS011;54685;52.082;5.426;2023-02-15T17:44:53;61.15;;;34.72;;
67889;SDS011;54685;52.082;5.426;2023-02-15T17:47:20;54.20;;;31.75;;
67889;SDS011;54685;52.082;5.426;2023-02-15T17:49:48;50.85;;;31.77;;
67889;SDS011;54685;52.082;5.426;2023-02-15T17:52:15;50.97;;;31.30;;
67889;SDS011;54685;52.082;5.426;2023-02-15T17:54:43;53.92;;;33.20;;
67889;SDS011;54685;52.082;5.426;2023-02-15T17:57:29;51.50;;;29.92;;
67889;SDS011;54685;52.082;5.426;2023-02-15T17:59:56;52.45;;;32.40;;
67889;SDS011;54685;52.082;5.426;2023-02-15T18:02:42;61.65;;;34.63;;
67889;SDS011;54685;52.082;5.426;2023-02-15T18:05:28;57.63;;;32.90;;
67889;SDS011;54685;52.082;5.426;2023-02-15T18:08:14;50.80;;;32.10;;
67889;SDS011;54685;52.082;5.426;2023-02-15T18:11:02;50.42;;;30.20;;
67889;SDS011;54685;52.082;5.426;2023-02-15T18:13:48;54.92;;;32.92;;